Terminal Aerodrome Forecast
Issued by NWS

Home | Current Version | Previous Version | Text Only | Print | Product List | Glossary Off
Versions: 1 2 3 4 5 6 7 8 9 10 11 12 13 14 15 16 17 18 19 20 21 22 23 24 25 26 27 28 29 30 31 32 33

000
FTUS43 KLOT 171130
TAFMDW
TAF
KMDW 171130Z 1712/1812 16012KT P6SM SCT015 BKN150
     FM171500 16015G23KT P6SM SCT025 BKN060
     FM172100 17015G23KT 6SM -SHRA SCT015 OVC025
     FM180000 18015G22KT 4SM -RA OVC010 WS020/20050KT
     FM180400 21012KT 3SM -RA BR OVC007 WS020/21045KT
     FM180800 28009KT 2SM -DZ BR OVC004=

USA.gov is the U.S. government's official web portal to all federal, state and local government web resources and services.